Time;durP1;ratioP1;P1;durP2;ratioP2;P2;SDS_P1;SDS_P2;PMS_P1;PMS_P2;Temp;Humidity;BMP_temperature;BMP_pressure;BME280_temperature;BME280_humidity;BME280_pressure;Samples;Min_cycle;Max_cycle;Signal;HPM_P1;HPM_P2
2021/10/08 00:04:29;;;;;;;13.27;10.25;;;11.00;99.90;;;;;;6148508;23;20152;-82
2021/10/08 00:06:56;;;;;;;11.27;10.07;;;10.90;99.90;;;;;;6146503;23;20161;-84
2021/10/08 00:12:28;;;;;;;12.27;10.15;;;10.90;99.90;;;;;;6083105;23;20200;-83
2021/10/08 00:18:43;;;;;;;10.85;9.65;;;10.80;99.90;;;;;;6095134;23;20224;-83
2021/10/08 00:23:56;;;;;;;12.07;10.55;;;10.80;99.90;;;;;;6155078;23;20197;-83
2021/10/08 00:26:25;;;;;;;11.35;10.13;;;10.90;99.90;;;;;;6155342;23;20201;-83
2021/10/08 00:32:24;;;;;;;11.90;10.35;;;10.80;99.90;;;;;;6152166;23;20238;-82
2021/10/08 00:35:27;;;;;;;11.43;10.25;;;10.80;99.90;;;;;;6146369;23;20604;-83
2021/10/08 00:38:03;;;;;;;12.10;10.68;;;10.80;99.90;;;;;;6108011;23;20197;-83
2021/10/08 00:40:43;;;;;;;14.23;9.77;;;10.80;99.90;;;;;;6142023;23;20176;-83
2021/10/08 00:43:10;;;;;;;12.57;10.05;;;10.80;99.90;;;;;;6140580;23;20182;-82
2021/10/08 00:45:42;;;;;;;12.05;10.55;;;10.70;99.90;;;;;;6140164;23;20205;-83
2021/10/08 00:48:18;;;;;;;12.25;9.70;;;10.80;99.90;;;;;;6142035;23;20206;-86
2021/10/08 00:50:58;;;;;;;14.80;9.00;;;10.80;99.90;;;;;;6142986;23;20202;-83
2021/10/08 00:53:59;;;;;;;14.52;10.88;;;10.80;99.90;;;;;;6138310;23;20182;-83
2021/10/08 00:56:26;;;;;;;13.30;11.57;;;10.70;99.90;;;;;;6136479;23;20212;-82
2021/10/08 00:58:53;;;;;;;13.55;11.63;;;10.60;99.90;;;;;;6138252;23;20201;-83
2021/10/08 01:01:20;;;;;;;12.02;10.07;;;10.60;99.90;;;;;;6138004;23;20200;-84
2021/10/08 01:03:48;;;;;;;11.00;9.48;;;10.50;99.90;;;;;;6138292;23;20267;-82
2021/10/08 01:06:16;;;;;;;10.95;9.40;;;10.50;99.90;;;;;;6141624;23;20237;-83
2021/10/08 01:08:44;;;;;;;13.07;9.40;;;10.50;99.90;;;;;;6141450;23;20206;-83
2021/10/08 01:11:11;;;;;;;14.00;11.05;;;10.50;99.90;;;;;;6142552;23;20186;-81
2021/10/08 01:13:38;;;;;;;10.27;9.27;;;10.50;99.90;;;;;;6141678;23;20173;-83
2021/10/08 01:16:06;;;;;;;12.73;9.88;;;10.50;99.90;;;;;;6140936;23;20170;-82
2021/10/08 01:18:33;;;;;;;11.45;10.25;;;10.50;99.90;;;;;;6138465;23;20201;-82
2021/10/08 01:21:02;;;;;;;11.70;9.65;;;10.40;99.90;;;;;;6139507;23;20181;-82
2021/10/08 01:23:29;;;;;;;11.07;9.85;;;10.50;99.90;;;;;;6139844;23;20253;-83
2021/10/08 01:25:56;;;;;;;10.85;9.80;;;10.50;99.90;;;;;;6141565;23;20203;-82
2021/10/08 01:28:24;;;;;;;9.45;8.38;;;10.50;99.90;;;;;;6143121;23;20221;-83
2021/10/08 01:30:51;;;;;;;12.18;9.43;;;10.50;99.90;;;;;;6140569;23;20189;-82
2021/10/08 01:33:18;;;;;;;12.32;9.60;;;10.50;99.90;;;;;;6139545;23;20202;-83
2021/10/08 01:35:45;;;;;;;10.40;9.10;;;10.60;99.90;;;;;;6138913;23;20234;-83
2021/10/08 01:38:14;;;;;;;9.98;9.05;;;10.60;99.90;;;;;;6139472;23;20208;-83
2021/10/08 01:40:41;;;;;;;12.13;9.98;;;10.50;99.90;;;;;;6138301;23;20256;-82
2021/10/08 01:43:09;;;;;;;9.65;8.65;;;10.50;99.90;;;;;;6139627;23;20449;-84
2021/10/08 01:45:36;;;;;;;13.05;9.75;;;10.40;99.90;;;;;;6138506;23;20186;-83
2021/10/08 01:48:03;;;;;;;13.02;10.57;;;10.40;99.90;;;;;;6140017;23;20276;-81
2021/10/08 01:50:30;;;;;;;9.77;8.20;;;10.40;99.90;;;;;;6138711;23;20177;-83
2021/10/08 01:52:59;;;;;;;12.20;9.43;;;10.40;99.90;;;;;;6139413;23;20202;-84
2021/10/08 01:55:28;;;;;;;11.35;9.30;;;10.40;99.90;;;;;;6138064;23;20237;-84
2021/10/08 01:57:55;;;;;;;10.52;9.43;;;10.40;99.90;;;;;;6137558;23;20590;-83
2021/10/08 02:00:22;;;;;;;11.70;9.95;;;10.40;99.90;;;;;;6137691;23;20188;-82
2021/10/08 02:02:50;;;;;;;9.48;8.57;;;10.40;99.90;;;;;;6136975;23;20174;-82
2021/10/08 02:05:17;;;;;;;10.55;9.13;;;10.40;99.90;;;;;;6137781;23;20473;-84
2021/10/08 02:07:47;;;;;;;11.40;8.60;;;10.40;99.90;;;;;;6143522;23;20288;-83
2021/10/08 02:10:15;;;;;;;12.30;10.30;;;10.40;99.90;;;;;;6148564;23;20162;-83
2021/10/08 02:12:44;;;;;;;12.60;10.70;;;10.30;99.90;;;;;;6147053;23;20197;-82
2021/10/08 02:15:11;;;;;;;10.85;9.77;;;10.20;99.90;;;;;;6150336;23;20193;-82
2021/10/08 02:17:38;;;;;;;10.57;9.35;;;10.30;99.90;;;;;;6150406;23;20182;-82
2021/10/08 02:20:06;;;;;;;10.80;9.48;;;10.30;99.90;;;;;;6150762;23;20225;-83
2021/10/08 02:22:33;;;;;;;10.77;9.65;;;10.20;99.90;;;;;;6150686;23;20197;-83
2021/10/08 02:25:01;;;;;;;13.85;10.77;;;10.20;99.90;;;;;;6148094;23;20185;-81
2021/10/08 02:27:28;;;;;;;12.88;11.00;;;10.20;99.90;;;;;;6147447;23;20176;-82
2021/10/08 02:29:57;;;;;;;11.80;10.55;;;9.90;99.90;;;;;;6149170;23;20188;-81
2021/10/08 02:32:24;;;;;;;12.52;11.20;;;10.00;99.90;;;;;;6148520;23;20245;-83
2021/10/08 02:34:51;;;;;;;12.95;11.65;;;10.00;99.90;;;;;;6147450;23;20645;-83
2021/10/08 02:37:18;;;;;;;12.65;11.07;;;9.90;99.90;;;;;;6143796;23;20234;-83
2021/10/08 02:39:45;;;;;;;17.88;10.48;;;9.80;99.90;;;;;;6142029;23;20203;-83
2021/10/08 02:42:12;;;;;;;13.02;11.05;;;9.90;99.90;;;;;;6141435;23;20256;-83
2021/10/08 02:44:39;;;;;;;10.63;9.52;;;9.80;99.90;;;;;;6141995;23;20685;-84
2021/10/08 02:47:11;;;;;;;13.70;11.30;;;9.80;99.90;;;;;;6140239;23;20723;-82
2021/10/08 02:52:24;;;;;;;10.00;9.00;;;9.70;99.90;;;;;;6132980;23;20198;-83
2021/10/08 02:54:51;;;;;;;13.07;9.82;;;9.80;99.90;;;;;;6138476;23;20189;-84
2021/10/08 02:57:23;;;;;;;14.52;11.02;;;9.70;99.90;;;;;;6138137;23;20648;-83
2021/10/08 02:59:50;;;;;;;9.35;8.40;;;9.70;99.90;;;;;;6138798;23;20177;-83
2021/10/08 03:05:36;;;;;;;12.80;10.55;;;9.60;99.90;;;;;;6147342;23;20178;-82
2021/10/08 03:08:04;;;;;;;12.27;10.50;;;9.50;99.90;;;;;;6145342;23;20201;-82
2021/10/08 03:10:44;;;;;;;11.43;9.82;;;9.50;99.90;;;;;;6146831;23;20196;-82
2021/10/08 03:13:15;;;;;;;11.02;9.73;;;9.50;99.90;;;;;;6150398;23;20245;-81
2021/10/08 03:21:48;;;;;;;11.18;10.05;;;9.60;99.90;;;;;;6145403;23;20192;-83
2021/10/08 03:24:57;;;;;;;14.48;11.05;;;9.50;99.90;;;;;;6144629;23;20204;-83
2021/10/08 03:27:35;;;;;;;13.85;10.85;;;9.50;99.90;;;;;;6143464;23;20181;-82
2021/10/08 03:33:23;;;;;;;12.35;10.80;;;9.40;99.90;;;;;;6030245;23;20264;-83
2021/10/08 03:36:15;;;;;;;10.90;9.80;;;9.30;99.90;;;;;;6025491;23;20169;-81
2021/10/08 03:39:07;;;;;;;12.48;9.93;;;9.30;99.90;;;;;;6136250;23;20202;-82
2021/10/08 03:41:35;;;;;;;11.07;9.25;;;9.30;99.90;;;;;;6142885;23;20155;-82
2021/10/08 03:45:12;;;;;;;12.68;10.50;;;9.30;99.90;;;;;;6145411;23;20185;-82
2021/10/08 03:51:02;;;;;;;10.15;9.10;;;9.20;99.90;;;;;;6144239;23;20202;-81
2021/10/08 03:53:32;;;;;;;11.15;10.05;;;9.20;99.90;;;;;;6143986;23;20186;-83
2021/10/08 03:56:41;;;;;;;11.10;9.90;;;9.20;99.90;;;;;;6142107;23;20169;-84
2021/10/08 03:59:28;;;;;;;11.98;10.48;;;9.20;99.90;;;;;;6134946;23;20192;-83
2021/10/08 04:02:31;;;;;;;10.80;9.70;;;9.20;99.90;;;;;;6133775;23;20238;-83
2021/10/08 04:05:08;;;;;;;12.32;9.35;;;9.10;99.90;;;;;;6135644;23;20241;-82
2021/10/08 04:07:51;;;;;;;10.52;9.57;;;9.10;99.90;;;;;;6150895;23;20149;-82
2021/10/08 04:11:10;;;;;;;8.80;7.90;;;9.10;99.90;;;;;;6147075;23;20165;-83
2021/10/08 04:13:40;;;;;;;10.40;9.40;;;9.10;99.90;;;;;;6117156;23;20206;-82
2021/10/08 04:16:08;;;;;;;11.18;9.60;;;9.10;99.90;;;;;;6137678;23;20176;-83
2021/10/08 04:18:35;;;;;;;10.38;8.95;;;9.00;99.90;;;;;;6138332;23;20202;-83
2021/10/08 04:23:49;;;;;;;9.63;7.85;;;9.00;99.90;;;;;;6149743;23;20173;-83
2021/10/08 04:26:32;;;;;;;8.85;7.65;;;9.00;99.90;;;;;;6139740;23;20164;-82
2021/10/08 04:36:40;;;;;;;10.63;9.52;;;9.00;99.90;;;;;;6111863;23;20260;-83
2021/10/08 04:39:31;;;;;;;8.30;7.40;;;9.00;99.90;;;;;;6138013;23;20256;-83
2021/10/08 04:42:41;;;;;;;16.80;13.63;;;9.00;99.90;;;;;;6138698;23;20173;-82
2021/10/08 04:51:51;;;;;;;22.75;15.00;;;9.80;99.90;;;;;;6153737;23;20164;-81
2021/10/08 04:54:18;;;;;;;21.52;16.83;;;10.00;99.90;;;;;;6153237;23;20181;-80
2021/10/08 04:56:48;;;;;;;23.73;17.70;;;9.90;99.90;;;;;;6153596;23;20162;-81
2021/10/08 04:59:15;;;;;;;54.17;38.92;;;9.90;99.90;;;;;;6153565;23;20185;-81
2021/10/08 05:04:23;;;;;;;9.50;7.65;;;9.70;99.90;;;;;;6144436;23;20189;-82
2021/10/08 05:06:52;;;;;;;10.18;9.10;;;9.50;99.90;;;;;;6153173;23;20172;-81
2021/10/08 05:09:24;;;;;;;35.63;26.40;;;9.40;99.90;;;;;;6153347;23;20198;-81
2021/10/08 05:11:51;;;;;;;30.65;22.25;;;9.50;99.90;;;;;;6153689;23;20210;-82
2021/10/08 05:14:18;;;;;;;34.22;22.98;;;9.80;99.90;;;;;;6153300;23;20229;-82
2021/10/08 05:16:46;;;;;;;26.90;17.95;;;10.10;99.90;;;;;;6153258;23;20230;-84
2021/10/08 05:19:13;;;;;;;15.60;13.13;;;10.10;99.90;;;;;;6152943;23;20212;-83
2021/10/08 05:21:40;;;;;;;12.10;8.95;;;10.10;99.90;;;;;;6152770;23;20170;-82
2021/10/08 05:24:11;;;;;;;10.63;8.73;;;10.10;99.90;;;;;;6152784;23;20165;-83
2021/10/08 05:26:39;;;;;;;11.25;9.82;;;9.80;99.90;;;;;;6152223;23;20232;-83
2021/10/08 05:29:06;;;;;;;11.00;8.52;;;9.60;99.90;;;;;;6142309;23;20213;-83
2021/10/08 05:31:33;;;;;;;11.02;9.40;;;9.50;99.90;;;;;;6140844;23;20233;-83
2021/10/08 05:34:00;;;;;;;13.07;10.05;;;9.40;99.90;;;;;;6142655;23;20194;-84
2021/10/08 05:36:27;;;;;;;10.07;8.27;;;9.30;99.90;;;;;;6141876;23;20182;-84
2021/10/08 05:38:55;;;;;;;11.73;10.35;;;9.20;99.90;;;;;;6143369;23;20221;-84
2021/10/08 05:41:23;;;;;;;8.60;7.70;;;9.10;99.90;;;;;;6143816;23;20229;-84
2021/10/08 05:43:50;;;;;;;9.80;8.55;;;9.00;99.90;;;;;;6141284;23;20257;-83
2021/10/08 05:46:17;;;;;;;10.85;9.25;;;9.10;99.90;;;;;;6141587;23;20260;-84
2021/10/08 05:48:44;;;;;;;13.52;7.90;;;9.00;99.90;;;;;;6141434;23;20200;-84
2021/10/08 05:51:12;;;;;;;10.02;8.98;;;9.00;99.90;;;;;;6140468;23;20181;-82
2021/10/08 05:53:39;;;;;;;11.50;8.65;;;9.00;99.90;;;;;;6142509;23;20200;-82
2021/10/08 05:56:06;;;;;;;9.30;8.40;;;9.00;99.90;;;;;;6142709;23;20185;-82
2021/10/08 05:58:35;;;;;;;11.38;8.25;;;8.90;99.90;;;;;;6142350;23;20206;-84
2021/10/08 06:01:02;;;;;;;8.57;7.30;;;8.80;99.90;;;;;;6141183;23;20219;-83
2021/10/08 06:03:29;;;;;;;9.00;7.10;;;8.80;99.90;;;;;;6141199;23;20276;-82
2021/10/08 06:05:56;;;;;;;11.10;8.07;;;8.90;99.90;;;;;;6140500;23;20181;-83
2021/10/08 06:08:23;;;;;;;9.88;8.80;;;8.80;99.90;;;;;;6140235;23;20224;-82
2021/10/08 06:10:50;;;;;;;12.32;9.07;;;8.90;99.90;;;;;;6141833;23;20171;-82
2021/10/08 06:16:51;;;;;;;10.57;8.95;;;9.00;99.90;;;;;;6079856;23;20178;-82
2021/10/08 06:39:42;;;;;;;7.18;6.05;;;9.80;99.90;;;;;;6085535;23;20207;-83
2021/10/08 06:45:06;;;;;;;8.60;6.35;;;12.10;99.90;;;;;;6143308;23;20183;-83
2021/10/08 06:47:34;;;;;;;7.45;6.00;;;13.30;99.90;;;;;;6142512;23;20185;-83
2021/10/08 06:50:01;;;;;;;8.43;5.47;;;13.90;99.90;;;;;;6140446;23;20181;-83
2021/10/08 06:52:28;;;;;;;9.25;7.07;;;14.70;99.90;;;;;;6142910;23;20190;-83
2021/10/08 06:54:57;;;;;;;7.95;5.95;;;15.50;99.90;;;;;;6146689;23;20190;-81
2021/10/08 06:57:24;;;;;;;13.43;6.70;;;15.70;99.90;;;;;;6146650;23;20184;-83
2021/10/08 06:59:51;;;;;;;8.13;6.17;;;16.70;99.90;;;;;;6146462;23;20224;-83
2021/10/08 07:02:18;;;;;;;7.20;6.50;;;17.70;99.60;;;;;;6143610;23;20460;-85
2021/10/08 07:04:45;;;;;;;9.40;5.77;;;17.80;97.90;;;;;;6142389;23;20408;-84
2021/10/08 07:07:12;;;;;;;12.23;7.20;;;18.00;97.90;;;;;;6140718;23;20406;-84
2021/10/08 07:09:39;;;;;;;11.10;6.70;;;18.20;97.10;;;;;;6141154;23;20506;-82
2021/10/08 07:12:08;;;;;;;9.43;5.73;;;18.60;96.90;;;;;;6142132;23;20835;-82
2021/10/08 07:14:35;;;;;;;7.93;6.70;;;18.60;95.80;;;;;;6141526;23;20920;-81
2021/10/08 07:17:03;;;;;;;7.10;5.93;;;18.60;95.60;;;;;;6141012;23;20469;-84
2021/10/08 07:19:30;;;;;;;6.33;5.73;;;18.60;95.90;;;;;;6139839;23;20461;-84
2021/10/08 07:21:58;;;;;;;10.13;6.50;;;19.80;95.10;;;;;;6147379;23;20392;-82
2021/10/08 07:24:25;;;;;;;7.73;6.27;;;20.60;92.80;;;;;;6142972;23;20445;-83
2021/10/08 07:26:52;;;;;;;8.70;6.40;;;20.40;92.20;;;;;;6140955;23;20415;-83
2021/10/08 07:29:22;;;;;;;7.47;6.77;;;20.30;92.30;;;;;;6140567;23;20470;-82
2021/10/08 07:31:49;;;;;;;12.67;6.20;;;20.50;92.00;;;;;;6140407;23;20392;-83
2021/10/08 07:34:16;;;;;;;6.83;6.03;;;21.10;91.90;;;;;;6143765;23;20518;-82
2021/10/08 07:36:43;;;;;;;8.10;6.63;;;21.20;90.90;;;;;;6141730;23;20423;-80
2021/10/08 07:39:10;;;;;;;7.70;6.90;;;21.00;91.10;;;;;;6143389;23;20497;-83
2021/10/08 07:41:37;;;;;;;13.07;7.07;;;21.20;90.80;;;;;;6143542;23;20401;-82
2021/10/08 07:44:05;;;;;;;8.20;7.40;;;21.30;90.70;;;;;;6142398;23;20427;-84
2021/10/08 07:46:34;;;;;;;11.50;6.97;;;22.00;90.00;;;;;;6144002;23;20412;-83
2021/10/08 07:49:01;;;;;;;8.37;7.60;;;22.60;88.70;;;;;;6141908;23;20508;-84
2021/10/08 07:51:29;;;;;;;8.80;7.90;;;23.10;86.90;;;;;;6145674;23;20452;-84
2021/10/08 07:53:57;;;;;;;9.70;8.70;;;23.40;84.70;;;;;;6144078;23;20449;-84
2021/10/08 07:56:24;;;;;;;13.40;9.40;;;23.10;85.20;;;;;;6144245;23;20422;-83
2021/10/08 07:58:51;;;;;;;10.37;9.30;;;22.70;85.70;;;;;;6145197;23;20496;-84
2021/10/08 08:01:18;;;;;;;8.10;7.40;;;22.80;86.50;;;;;;6146685;23;20484;-82
2021/10/08 08:03:47;;;;;;;9.93;8.30;;;23.10;86.10;;;;;;6153663;23;20417;-82
2021/10/08 08:06:14;;;;;;;9.77;8.60;;;23.40;85.20;;;;;;6153232;23;20462;-83
2021/10/08 08:08:41;;;;;;;10.10;8.93;;;23.60;83.90;;;;;;6152609;23;20460;-85
2021/10/08 08:11:08;;;;;;;12.13;8.63;;;23.50;84.50;;;;;;6153611;23;20408;-83
2021/10/08 08:13:36;;;;;;;11.73;10.10;;;23.80;84.20;;;;;;6154644;23;20507;-82
2021/10/08 08:16:03;;;;;;;11.40;9.97;;;24.60;82.90;;;;;;6155502;23;20408;-82
2021/10/08 08:18:30;;;;;;;13.07;10.20;;;24.80;81.30;;;;;;6153242;23;20441;-84
2021/10/08 08:20:58;;;;;;;11.97;10.73;;;24.70;80.20;;;;;;6154209;23;20433;-83
2021/10/08 08:23:25;;;;;;;12.83;11.53;;;25.10;80.30;;;;;;6154449;23;20460;-84
2021/10/08 08:25:54;;;;;;;12.03;10.83;;;25.30;78.50;;;;;;6153782;23;20460;-84
2021/10/08 08:28:21;;;;;;;11.77;10.37;;;25.50;78.50;;;;;;6144476;23;20444;-84
2021/10/08 08:30:49;;;;;;;16.00;12.37;;;25.90;78.60;;;;;;6143706;23;20733;-84
2021/10/08 08:33:17;;;;;;;12.90;10.57;;;25.80;78.40;;;;;;6146083;23;20476;-84
2021/10/08 08:35:44;;;;;;;13.03;11.40;;;25.80;76.80;;;;;;6146030;23;20495;-84
2021/10/08 08:38:13;;;;;;;14.90;10.80;;;25.90;76.50;;;;;;6144988;23;20433;-84
2021/10/08 08:40:40;;;;;;;14.33;11.50;;;25.90;77.50;;;;;;6147009;23;20453;-83
2021/10/08 08:43:07;;;;;;;12.33;11.10;;;26.00;77.50;;;;;;6149277;23;20394;-83
2021/10/08 08:45:35;;;;;;;19.60;11.80;;;26.00;77.50;;;;;;6147436;23;20931;-84
2021/10/08 08:48:04;;;;;;;11.73;10.23;;;26.00;77.60;;;;;;6144438;23;20555;-83
2021/10/08 08:50:33;;;;;;;11.50;9.50;;;26.50;76.80;;;;;;6146987;23;20404;-84
2021/10/08 08:53:00;;;;;;;19.57;12.07;;;26.50;76.00;;;;;;6145248;23;20493;-84
2021/10/08 08:55:29;;;;;;;11.17;10.03;;;27.00;76.10;;;;;;6145566;23;20429;-83
2021/10/08 08:57:56;;;;;;;13.90;11.70;;;27.30;74.30;;;;;;6145824;23;20431;-82
2021/10/08 09:00:24;;;;;;;11.80;10.67;;;27.30;74.20;;;;;;6146386;23;20416;-82
2021/10/08 09:02:57;;;;;;;12.57;10.47;;;27.40;73.40;;;;;;6144719;23;20416;-83
2021/10/08 09:05:26;;;;;;;13.80;12.30;;;27.60;73.10;;;;;;6144212;23;20462;-82
2021/10/08 09:07:57;;;;;;;16.13;11.60;;;27.20;72.20;;;;;;6143040;23;20457;-83
2021/10/08 09:10:26;;;;;;;12.70;11.40;;;27.30;73.90;;;;;;6142795;23;20394;-84
2021/10/08 09:12:57;;;;;;;11.13;10.03;;;27.40;73.30;;;;;;6144163;23;20414;-83
2021/10/08 09:15:36;;;;;;;13.03;10.97;;;27.40;72.80;;;;;;6144320;23;20500;-82
2021/10/08 09:18:07;;;;;;;11.80;10.60;;;28.10;71.30;;;;;;6141248;23;20445;-84
2021/10/08 09:20:35;;;;;;;12.20;10.50;;;28.60;70.00;;;;;;6145736;23;20402;-83
2021/10/08 09:23:03;;;;;;;9.97;9.07;;;28.30;69.70;;;;;;6142813;23;20473;-84
2021/10/08 09:25:33;;;;;;;11.37;10.27;;;28.50;70.00;;;;;;6141885;23;20405;-84
2021/10/08 09:28:04;;;;;;;11.50;10.30;;;29.00;69.20;;;;;;6145515;23;20984;-83
2021/10/08 09:30:41;;;;;;;13.13;11.73;;;28.50;68.40;;;;;;6146947;23;20378;-83
2021/10/08 09:33:10;;;;;;;11.07;9.40;;;28.30;69.20;;;;;;6145425;23;20385;-83
2021/10/08 09:35:38;;;;;;;8.60;7.70;;;28.10;69.90;;;;;;6142862;23;20445;-84
2021/10/08 09:38:10;;;;;;;9.17;8.27;;;28.50;69.10;;;;;;6143264;23;20429;-84
2021/10/08 09:40:40;;;;;;;11.87;8.67;;;28.90;68.00;;;;;;6142629;23;20426;-82
2021/10/08 09:43:11;;;;;;;15.07;9.23;;;28.80;68.30;;;;;;6143200;23;20412;-84
2021/10/08 09:45:41;;;;;;;11.73;8.23;;;28.40;67.70;;;;;;6141302;23;20417;-83
2021/10/08 09:48:09;;;;;;;9.77;8.33;;;27.60;69.30;;;;;;6143910;23;20485;-84
2021/10/08 09:50:38;;;;;;;9.00;6.57;;;27.30;69.90;;;;;;6141930;23;20478;-83
2021/10/08 09:53:13;;;;;;;8.40;7.60;;;27.00;71.80;;;;;;6140356;23;20501;-85
2021/10/08 09:55:41;;;;;;;9.07;7.37;;;26.80;71.90;;;;;;6140700;23;20976;-84
2021/10/08 09:58:10;;;;;;;10.60;8.17;;;26.60;71.70;;;;;;6140908;23;20449;-84
2021/10/08 10:00:44;;;;;;;8.10;6.40;;;26.40;72.70;;;;;;6141408;23;20406;-83
2021/10/08 10:03:13;;;;;;;6.37;5.77;;;26.80;72.10;;;;;;6140359;23;20397;-83
2021/10/08 10:05:40;;;;;;;6.90;6.20;;;27.30;70.10;;;;;;6140176;23;20464;-83
2021/10/08 10:08:08;;;;;;;7.40;6.00;;;27.30;69.90;;;;;;6140320;23;20440;-83
2021/10/08 10:10:37;;;;;;;5.87;5.27;;;27.00;70.60;;;;;;6140723;23;20562;-84
2021/10/08 10:13:06;;;;;;;6.30;5.70;;;26.80;71.40;;;;;;6141061;23;20413;-84
2021/10/08 10:15:37;;;;;;;7.60;5.87;;;26.60;72.80;;;;;;6140242;23;20459;-84
2021/10/08 10:18:05;;;;;;;5.30;4.80;;;26.80;72.80;;;;;;6143791;23;20434;-83
2021/10/08 10:20:35;;;;;;;8.17;5.90;;;26.70;73.60;;;;;;6148098;23;20469;-83
2021/10/08 10:23:06;;;;;;;7.40;5.50;;;26.90;73.20;;;;;;6146999;23;20401;-83
2021/10/08 10:25:34;;;;;;;5.73;5.23;;;26.80;72.60;;;;;;6143227;23;20408;-84
2021/10/08 10:28:01;;;;;;;5.67;5.17;;;26.00;73.40;;;;;;6141079;23;20497;-83
2021/10/08 10:30:29;;;;;;;7.00;5.50;;;25.40;75.10;;;;;;6142449;23;20544;-83
2021/10/08 10:32:58;;;;;;;5.70;5.07;;;24.40;78.40;;;;;;6141258;23;20405;-84
2021/10/08 10:35:44;;;;;;;5.13;4.20;;;23.50;79.40;;;;;;6138923;23;20532;-85
2021/10/08 10:38:38;;;;;;;7.70;4.57;;;23.10;81.90;;;;;;6140735;23;20487;-83
2021/10/08 10:41:21;;;;;;;6.30;4.50;;;23.00;82.80;;;;;;6140941;23;20407;-81
2021/10/08 10:43:51;;;;;;;5.13;4.63;;;22.80;84.20;;;;;;6141061;23;20401;-84
2021/10/08 10:46:37;;;;;;;5.47;4.17;;;22.70;84.70;;;;;;6141974;23;20420;-84
2021/10/08 10:52:28;;;;;;;6.60;4.90;;;21.80;86.80;;;;;;6140261;23;20396;-83
2021/10/08 10:55:11;;;;;;;6.73;4.63;;;21.80;89.00;;;;;;6140065;23;20543;-85
2021/10/08 10:57:57;;;;;;;5.27;4.60;;;21.70;90.30;;;;;;6140974;23;20404;-84
2021/10/08 11:00:30;;;;;;;6.67;5.97;;;21.70;90.40;;;;;;6142429;23;20401;-84
2021/10/08 11:03:07;;;;;;;5.33;4.67;;;21.60;90.60;;;;;;6141365;23;20399;-83
2021/10/08 11:05:39;;;;;;;5.40;4.60;;;21.50;90.20;;;;;;6140882;23;20426;-84
2021/10/08 11:08:15;;;;;;;4.90;4.40;;;21.40;90.70;;;;;;6141421;23;20435;-85
2021/10/08 11:10:47;;;;;;;4.97;3.60;;;21.40;90.80;;;;;;6141932;23;20393;-83
2021/10/08 11:13:30;;;;;;;9.53;4.33;;;21.30;90.90;;;;;;6140622;23;20394;-84
2021/10/08 11:16:00;;;;;;;5.90;4.97;;;21.20;91.40;;;;;;6138883;23;20506;-82
2021/10/08 11:18:45;;;;;;;3.60;3.30;;;20.90;91.70;;;;;;6141778;23;20427;-83
2021/10/08 11:21:29;;;;;;;5.10;4.60;;;21.00;92.50;;;;;;6139886;23;20398;-84
2021/10/08 11:24:01;;;;;;;5.63;3.67;;;21.10;92.20;;;;;;6113133;23;20428;-83
2021/10/08 11:26:28;;;;;;;5.50;3.70;;;21.00;92.10;;;;;;6138421;23;20411;-84
2021/10/08 11:28:57;;;;;;;4.43;3.30;;;20.90;92.60;;;;;;6138150;23;20512;-81
2021/10/08 11:31:24;;;;;;;4.57;3.07;;;20.90;92.30;;;;;;6137240;23;20423;-83
2021/10/08 11:33:54;;;;;;;5.20;3.13;;;20.70;91.10;;;;;;6137545;23;20913;-84
2021/10/08 11:36:26;;;;;;;2.93;2.53;;;20.40;91.50;;;;;;6138494;23;20969;-82
2021/10/08 11:39:09;;;;;;;5.47;3.30;;;20.30;92.20;;;;;;6141071;23;20438;-82
2021/10/08 11:41:37;;;;;;;3.20;2.63;;;20.00;93.00;;;;;;6139440;23;20480;-82
2021/10/08 11:44:16;;;;;;;6.90;3.50;;;19.90;93.40;;;;;;6139004;23;20420;-82
2021/10/08 11:46:56;;;;;;;5.30;3.00;;;19.90;93.50;;;;;;6140207;23;20477;-86
2021/10/08 11:52:10;;;;;;;3.93;3.20;;;20.00;93.70;;;;;;6140329;23;20389;-82
2021/10/08 11:54:37;;;;;;;3.70;3.40;;;20.10;94.10;;;;;;6139289;23;20476;-83
2021/10/08 11:57:08;;;;;;;5.07;4.10;;;20.20;93.70;;;;;;6138819;23;20469;-83
2021/10/08 11:59:37;;;;;;;7.97;3.50;;;20.50;93.30;;;;;;6139349;23;20451;-84
2021/10/08 12:02:13;;;;;;;6.60;4.60;;;20.60;93.00;;;;;;6144805;23;20427;-83
2021/10/08 12:04:41;;;;;;;5.20;4.70;;;20.70;92.40;;;;;;6140414;23;20489;-84
2021/10/08 12:07:12;;;;;;;4.50;4.10;;;20.60;92.40;;;;;;6144045;23;20415;-83
2021/10/08 12:09:39;;;;;;;6.23;4.80;;;20.70;92.60;;;;;;6144792;23;20442;-83
2021/10/08 12:12:15;;;;;;;8.43;5.37;;;20.40;92.70;;;;;;6142301;23;20409;-84
2021/10/08 12:14:46;;;;;;;9.23;5.53;;;20.10;93.00;;;;;;6142514;23;20435;-82
2021/10/08 12:17:14;;;;;;;7.63;6.00;;;19.80;93.20;;;;;;6146996;23;20517;-83
2021/10/08 12:19:42;;;;;;;4.97;4.50;;;19.70;93.70;;;;;;6137915;23;20493;-84
2021/10/08 12:22:22;;;;;;;6.20;4.70;;;19.80;93.70;;;;;;6138777;23;20429;-83
2021/10/08 12:24:50;;;;;;;4.93;4.43;;;19.90;93.80;;;;;;6137900;23;20468;-83
2021/10/08 12:27:18;;;;;;;9.27;3.67;;;19.90;93.60;;;;;;6139655;23;20413;-84
2021/10/08 12:29:48;;;;;;;5.60;3.50;;;19.90;93.90;;;;;;6137852;23;20435;-82
2021/10/08 12:32:17;;;;;;;5.03;3.80;;;20.10;93.90;;;;;;6139591;23;20794;-83
2021/10/08 12:34:46;;;;;;;4.30;3.00;;;20.10;94.10;;;;;;6142235;23;20424;-83
2021/10/08 12:37:17;;;;;;;3.73;3.43;;;20.40;94.30;;;;;;6142522;23;20535;-82
2021/10/08 12:40:01;;;;;;;4.07;3.60;;;20.50;93.80;;;;;;6146084;23;20463;-83
2021/10/08 12:42:33;;;;;;;3.80;3.40;;;20.60;93.40;;;;;;6144024;23;20425;-83
2021/10/08 12:45:00;;;;;;;5.40;3.40;;;20.60;93.60;;;;;;6139883;23;20392;-83
2021/10/08 12:47:38;;;;;;;4.90;3.30;;;20.70;93.60;;;;;;6139765;23;20397;-83
2021/10/08 12:50:07;;;;;;;5.50;3.07;;;20.60;93.00;;;;;;6139589;23;20402;-83
2021/10/08 12:52:38;;;;;;;4.60;3.30;;;20.60;93.00;;;;;;6138596;23;20409;-83
2021/10/08 12:55:09;;;;;;;5.13;3.20;;;20.50;93.40;;;;;;6137758;23;21065;-83
2021/10/08 12:57:37;;;;;;;3.43;3.13;;;20.40;93.70;;;;;;6147386;23;20447;-83
2021/10/08 13:00:07;;;;;;;6.23;3.03;;;20.40;93.80;;;;;;6141001;23;20416;-83
2021/10/08 13:02:46;;;;;;;6.40;3.30;;;20.50;93.70;;;;;;6136281;23;20499;-83
2021/10/08 13:05:14;;;;;;;11.07;3.20;;;20.60;93.70;;;;;;6137283;23;20411;-83
2021/10/08 13:07:43;;;;;;;2.97;2.60;;;20.60;93.40;;;;;;6138127;23;20435;-83
2021/10/08 13:10:20;;;;;;;6.00;2.93;;;20.70;93.40;;;;;;6135700;23;20435;-85
2021/10/08 13:12:57;;;;;;;3.70;3.07;;;20.80;92.90;;;;;;6136649;23;20396;-85
2021/10/08 13:15:27;;;;;;;3.83;3.53;;;20.80;92.80;;;;;;6137666;23;20432;-85
2021/10/08 13:18:02;;;;;;;4.03;3.00;;;20.60;93.30;;;;;;6137593;23;20508;-85
2021/10/08 13:20:30;;;;;;;6.20;3.07;;;20.70;93.10;;;;;;6137954;23;20420;-84
2021/10/08 13:22:59;;;;;;;4.20;2.70;;;20.80;92.80;;;;;;6136591;23;20416;-84
2021/10/08 13:25:27;;;;;;;6.10;2.87;;;20.80;92.80;;;;;;6138469;23;20428;-85
2021/10/08 13:27:55;;;;;;;3.10;2.80;;;20.80;93.10;;;;;;6140007;23;20436;-85
2021/10/08 13:30:22;;;;;;;8.73;3.07;;;21.00;93.10;;;;;;6139169;23;20408;-84
2021/10/08 13:32:49;;;;;;;5.83;3.60;;;21.00;93.30;;;;;;6138761;23;20955;-85
2021/10/08 13:35:16;;;;;;;6.80;3.50;;;21.10;93.30;;;;;;6137788;23;20500;-84
2021/10/08 13:37:44;;;;;;;4.03;3.00;;;21.30;92.50;;;;;;6140203;23;20416;-82
2021/10/08 13:40:13;;;;;;;3.63;3.30;;;21.30;92.40;;;;;;6142943;23;20413;-81
2021/10/08 13:42:41;;;;;;;4.23;3.43;;;21.00;93.00;;;;;;6142095;23;20447;-83
2021/10/08 13:45:10;;;;;;;3.40;3.00;;;20.80;93.30;;;;;;6139856;23;20952;-86
2021/10/08 13:47:37;;;;;;;3.80;3.20;;;20.70;93.90;;;;;;6139238;23;20475;-84
2021/10/08 13:50:05;;;;;;;8.23;3.90;;;20.50;94.00;;;;;;6139165;23;20852;-86
2021/10/08 13:52:32;;;;;;;3.30;3.00;;;20.40;94.10;;;;;;6139099;23;20409;-81
2021/10/08 13:54:59;;;;;;;3.50;3.20;;;20.40;94.80;;;;;;6137881;23;20414;-85
2021/10/08 13:57:28;;;;;;;5.60;4.07;;;20.40;94.30;;;;;;6138181;23;20472;-85
2021/10/08 13:59:55;;;;;;;3.83;3.53;;;20.50;94.20;;;;;;6138970;23;20414;-85
2021/10/08 14:02:24;;;;;;;6.73;4.27;;;20.60;94.10;;;;;;6140168;23;20408;-84
2021/10/08 14:04:54;;;;;;;5.27;3.20;;;20.90;94.30;;;;;;6140475;23;21050;-82
2021/10/08 14:07:32;;;;;;;4.33;3.93;;;21.00;93.60;;;;;;6140132;23;20416;-82
2021/10/08 14:10:20;;;;;;;9.27;3.73;;;21.10;92.90;;;;;;6139723;23;20786;-81
2021/10/08 14:12:50;;;;;;;3.90;2.70;;;21.00;93.00;;;;;;6146717;23;20396;-81
2021/10/08 14:15:18;;;;;;;3.90;3.33;;;20.80;93.10;;;;;;6144830;23;20444;-82
2021/10/08 14:17:45;;;;;;;4.20;3.80;;;20.80;92.80;;;;;;6140683;23;20759;-82
2021/10/08 14:20:14;;;;;;;3.90;3.60;;;20.60;93.00;;;;;;6141243;23;20429;-83
2021/10/08 14:22:43;;;;;;;6.47;4.07;;;20.30;93.60;;;;;;6140713;23;20410;-83
2021/10/08 14:25:11;;;;;;;4.63;3.23;;;20.20;94.00;;;;;;6137892;23;20404;-83
2021/10/08 14:27:39;;;;;;;3.83;3.43;;;19.90;94.90;;;;;;6141448;23;20491;-84